createdAt,value
2018-04-11T00:00:08.684Z,35.22
2018-04-11T00:00:42.854Z,36.75
2018-04-11T00:01:16.833Z,31.30
2018-04-11T00:01:51.045Z,32.13
2018-04-11T00:02:24.970Z,36.72
2018-04-11T00:02:59.143Z,33.42
2018-04-11T00:03:33.012Z,32.78
2018-04-11T00:04:06.931Z,34.67
2018-04-11T00:04:40.788Z,36.70
2018-04-11T00:05:14.652Z,31.00
2018-04-11T00:05:48.523Z,33.55
2018-04-11T00:06:22.406Z,32.63
2018-04-11T00:06:56.275Z,30.92
2018-04-11T00:07:30.316Z,30.02
2018-04-11T00:08:05.185Z,32.40
2018-04-11T00:08:39.044Z,29.27
2018-04-11T00:09:13.121Z,34.38
2018-04-11T00:09:46.989Z,30.90
2018-04-11T00:10:20.862Z,33.55
2018-04-11T00:10:54.801Z,30.33
2018-04-11T00:11:28.681Z,28.33
2018-04-11T00:12:02.544Z,33.13
2018-04-11T00:12:36.421Z,33.97
2018-04-11T00:13:10.302Z,34.85
2018-04-11T00:13:44.179Z,37.10
2018-04-11T00:14:18.098Z,32.45
2018-04-11T00:14:52.167Z,31.90
2018-04-11T00:15:26.034Z,27.73
2018-04-11T00:15:59.902Z,34.97
2018-04-11T00:16:33.790Z,40.75
2018-04-11T00:17:07.664Z,34.95
2018-04-11T00:17:41.543Z,34.08
2018-04-11T00:18:15.408Z,29.70
2018-04-11T00:18:49.276Z,32.15
2018-04-11T00:19:23.433Z,33.70
2018-04-11T00:19:57.324Z,33.35
2018-04-11T00:20:31.226Z,30.45
2018-04-11T00:21:05.430Z,30.20
2018-04-11T00:21:39.334Z,35.70
2018-04-11T00:22:13.221Z,29.92
2018-04-11T00:22:47.073Z,35.10
2018-04-11T00:23:20.938Z,31.80
2018-04-11T00:23:54.807Z,33.72
2018-04-11T00:24:28.801Z,28.83
2018-04-11T00:25:02.680Z,31.45
2018-04-11T00:25:36.548Z,36.13
2018-04-11T00:26:10.452Z,34.60
2018-04-11T00:26:44.292Z,28.50
2018-04-11T00:27:18.286Z,29.90
2018-04-11T00:27:52.133Z,29.52
2018-04-11T00:28:26.000Z,27.85
2018-04-11T00:29:00.000Z,31.92
2018-04-11T00:29:33.886Z,35.15
2018-04-11T00:30:07.757Z,29.00
2018-04-11T00:30:42.044Z,29.83
2018-04-11T00:31:16.058Z,32.33
2018-04-11T00:31:49.930Z,27.77
2018-04-11T00:32:23.806Z,33.83
2018-04-11T00:32:57.753Z,26.67
2018-04-11T00:33:31.614Z,26.67
2018-04-11T00:34:05.653Z,27.37
2018-04-11T00:34:39.585Z,38.78
2018-04-11T00:35:13.472Z,30.88
2018-04-11T00:35:47.336Z,32.88
2018-04-11T00:36:21.208Z,31.65
2018-04-11T00:36:55.104Z,32.13
2018-04-11T00:37:29.015Z,29.90
2018-04-11T00:38:03.062Z,30.98
2018-04-11T00:38:36.931Z,29.92
2018-04-11T00:39:10.998Z,28.75
2018-04-11T00:39:44.883Z,32.63
2018-04-11T00:40:18.762Z,27.58
2018-04-11T00:40:52.647Z,27.10
2018-04-11T00:41:26.508Z,25.92
2018-04-11T00:42:00.369Z,31.75
2018-04-11T00:42:34.375Z,28.87
2018-04-11T00:43:08.237Z,29.90
2018-04-11T00:43:42.176Z,27.77
2018-04-11T00:44:16.041Z,40.00
2018-04-11T00:44:49.907Z,39.33
2018-04-11T00:45:23.788Z,32.33
2018-04-11T00:45:57.663Z,33.17
2018-04-11T00:46:31.560Z,29.83
2018-04-11T00:47:05.519Z,30.92
2018-04-11T00:47:39.402Z,34.25
2018-04-11T00:48:13.280Z,31.17
2018-04-11T00:48:47.319Z,30.08
2018-04-11T00:49:21.190Z,28.50
2018-04-11T00:49:55.083Z,32.20
2018-04-11T00:50:28.974Z,32.25
2018-04-11T00:51:02.971Z,27.67
2018-04-11T00:51:36.823Z,29.80
2018-04-11T00:52:10.698Z,29.63
2018-04-11T00:53:00.148Z,28.90
2018-04-11T00:53:34.029Z,29.50
2018-04-11T00:54:07.935Z,30.73
2018-04-11T00:54:41.828Z,33.55
2018-04-11T00:55:15.711Z,28.62
2018-04-11T00:55:49.582Z,32.05
2018-04-11T00:56:23.527Z,26.25
2018-04-11T00:56:57.433Z,31.60
2018-04-11T00:57:31.299Z,30.05
2018-04-11T00:58:05.197Z,29.90
2018-04-11T00:58:39.056Z,34.10
2018-04-11T00:59:12.928Z,30.75
2018-04-11T00:59:46.801Z,30.37
2018-04-11T01:00:20.781Z,27.83
2018-04-11T01:00:54.680Z,27.48
2018-04-11T01:01:28.609Z,33.03
2018-04-11T01:02:02.493Z,31.02
2018-04-11T01:02:36.365Z,29.65
2018-04-11T01:03:10.259Z,26.92
2018-04-11T01:03:44.150Z,32.15
2018-04-11T01:04:18.063Z,28.48
2018-04-11T01:04:51.968Z,29.73
2018-04-11T01:05:25.862Z,25.95
2018-04-11T01:05:59.849Z,28.50
2018-04-11T01:06:33.754Z,31.48
2018-04-11T01:07:07.628Z,32.97
2018-04-11T01:07:41.520Z,30.55
2018-04-11T01:08:15.377Z,29.35
2018-04-11T01:08:49.317Z,29.50
2018-04-11T01:09:23.219Z,34.53
2018-04-11T01:09:57.082Z,29.80
2018-04-11T01:10:31.116Z,37.63
2018-04-11T01:11:05.226Z,28.40
2018-04-11T01:11:39.208Z,31.48
2018-04-11T01:12:13.092Z,28.60
2018-04-11T01:12:46.991Z,28.73
2018-04-11T01:13:20.861Z,37.55
2018-04-11T01:13:54.790Z,35.28
2018-04-11T01:14:28.673Z,29.87
2018-04-11T01:15:02.544Z,32.65
2018-04-11T01:15:36.513Z,30.95
2018-04-11T01:16:10.388Z,33.40
2018-04-11T01:16:44.267Z,34.88
2018-04-11T01:17:18.171Z,30.30
2018-04-11T01:17:52.035Z,34.65
2018-04-11T01:18:26.066Z,32.05
2018-04-11T01:18:59.917Z,30.45
2018-04-11T01:19:33.762Z,32.78
2018-04-11T01:20:07.645Z,28.87
2018-04-11T01:20:41.564Z,37.08
2018-04-11T01:21:15.459Z,36.78
2018-04-11T01:21:49.428Z,29.75
2018-04-11T01:22:23.299Z,33.05
2018-04-11T01:22:57.168Z,35.35
2018-04-11T01:23:31.203Z,30.17
2018-04-11T01:24:05.068Z,30.12
2018-04-11T01:24:38.931Z,29.45
2018-04-11T01:25:12.834Z,34.28
2018-04-11T01:25:46.788Z,29.52
2018-04-11T01:26:20.727Z,31.77
2018-04-11T01:26:54.816Z,31.95
2018-04-11T01:27:28.684Z,30.50
2018-04-11T01:28:02.669Z,35.00
2018-04-11T01:28:36.527Z,29.83
2018-04-11T01:29:10.486Z,35.25
2018-04-11T01:29:44.583Z,30.48
2018-04-11T01:30:18.465Z,36.30
2018-04-11T01:30:52.349Z,27.08
2018-04-11T01:31:26.367Z,33.90
2018-04-11T01:32:00.361Z,32.08
2018-04-11T01:32:34.226Z,29.95
2018-04-11T01:33:08.099Z,32.70
2018-04-11T01:33:42.193Z,28.70
2018-04-11T01:34:16.152Z,33.72
2018-04-11T01:34:50.038Z,34.47
2018-04-11T01:35:23.929Z,30.20
2018-04-11T01:35:57.829Z,31.33
2018-04-11T01:36:31.727Z,29.08
2018-04-11T01:37:05.618Z,29.80
2018-04-11T01:37:39.531Z,38.20
2018-04-11T01:38:13.425Z,33.78
2018-04-11T01:38:47.413Z,31.87
2018-04-11T01:39:21.299Z,29.50
2018-04-11T01:39:55.190Z,34.53
2018-04-11T01:40:29.093Z,36.85
2018-04-11T01:41:02.968Z,30.20
2018-04-11T01:41:36.826Z,32.80
2018-04-11T01:42:10.741Z,32.60
2018-04-11T01:42:44.615Z,30.37
2018-04-11T01:43:18.508Z,35.55
2018-04-11T01:43:52.567Z,30.42
2018-04-11T01:44:26.474Z,39.05
2018-04-11T01:45:00.343Z,29.92
2018-04-11T01:45:34.273Z,36.45
2018-04-11T01:46:08.448Z,36.97
2018-04-11T01:46:42.312Z,31.92
2018-04-11T01:47:16.237Z,34.70
2018-04-11T01:47:50.251Z,43.70
2018-04-11T01:48:24.133Z,33.03
2018-04-11T01:48:58.004Z,32.78
2018-04-11T01:49:31.867Z,30.12
2018-04-11T01:50:05.732Z,31.90
2018-04-11T01:50:39.625Z,28.90
2018-04-11T01:51:13.815Z,30.27
2018-04-11T01:51:47.700Z,32.50
2018-04-11T01:52:21.564Z,32.05
2018-04-11T01:52:55.431Z,35.85
2018-04-11T01:53:29.290Z,29.15
2018-04-11T01:54:03.296Z,32.25
2018-04-11T01:54:37.168Z,34.15
2018-04-11T01:55:11.235Z,28.85
2018-04-11T01:55:45.108Z,28.10
2018-04-11T01:56:19.093Z,29.85
2018-04-11T01:56:53.081Z,36.28
2018-04-11T01:57:26.973Z,36.00
2018-04-11T01:58:00.868Z,34.63
2018-04-11T01:58:34.735Z,29.63
2018-04-11T01:59:08.624Z,37.05
2018-04-11T01:59:42.487Z,38.28
2018-04-11T02:00:16.424Z,29.58
2018-04-11T02:00:50.294Z,33.83
2018-04-11T02:01:24.267Z,34.38
2018-04-11T02:01:58.340Z,34.28
2018-04-11T02:02:32.203Z,37.20
2018-04-11T02:03:06.063Z,40.58
2018-04-11T02:03:39.923Z,33.05
2018-04-11T02:04:13.840Z,29.20
2018-04-11T02:04:47.821Z,36.13
2018-04-11T02:05:21.847Z,40.90
2018-04-11T02:05:55.912Z,30.45
2018-04-11T02:06:29.784Z,35.53
2018-04-11T02:07:03.671Z,29.73
2018-04-11T02:07:37.620Z,29.80
2018-04-11T02:08:11.493Z,35.15
2018-04-11T02:08:45.696Z,32.53
2018-04-11T02:09:19.623Z,36.15
2018-04-11T02:09:53.498Z,33.88
2018-04-11T02:10:27.360Z,28.70
2018-04-11T02:11:01.228Z,30.23
2018-04-11T02:11:35.129Z,30.33
2018-04-11T02:12:09.028Z,30.55
2018-04-11T02:12:42.898Z,33.05
2018-04-11T02:13:16.774Z,33.55
2018-04-11T02:13:50.642Z,32.28
2018-04-11T02:14:24.494Z,31.85
2018-04-11T02:14:58.645Z,31.55
2018-04-11T02:15:32.675Z,29.90
2018-04-11T02:16:06.647Z,33.90
2018-04-11T02:16:40.564Z,39.03
2018-04-11T02:17:14.437Z,36.28
2018-04-11T02:17:48.310Z,30.60
2018-04-11T02:18:22.175Z,35.78
2018-04-11T02:18:56.028Z,32.75
2018-04-11T02:19:29.895Z,32.35
2018-04-11T02:20:03.777Z,30.80
2018-04-11T02:20:37.644Z,34.67
2018-04-11T02:21:11.598Z,32.10
2018-04-11T02:21:45.507Z,31.15
2018-04-11T02:22:19.368Z,32.63
2018-04-11T02:22:53.274Z,33.05
2018-04-11T02:23:27.244Z,31.58
2018-04-11T02:24:01.119Z,40.97
2018-04-11T02:24:35.101Z,30.08
2018-04-11T02:25:09.080Z,33.58
2018-04-11T02:25:42.967Z,35.65
2018-04-11T02:26:16.864Z,31.25
2018-04-11T02:26:50.746Z,34.50
2018-04-11T02:27:24.653Z,31.10
2018-04-11T02:27:58.556Z,35.80
2018-04-11T02:28:32.420Z,29.85
2018-04-11T02:29:06.285Z,32.35
2018-04-11T02:29:40.147Z,29.37
2018-04-11T02:30:14.016Z,28.38
2018-04-11T02:30:48.031Z,35.75
2018-04-11T02:31:21.944Z,48.65
2018-04-11T02:31:55.820Z,34.90
2018-04-11T02:32:29.688Z,38.30
2018-04-11T02:33:03.607Z,30.67
2018-04-11T02:33:37.496Z,35.58
2018-04-11T02:34:11.393Z,34.83
2018-04-11T02:34:45.272Z,37.40
2018-04-11T02:35:19.144Z,34.20
2018-04-11T02:35:53.088Z,33.80
2018-04-11T02:36:27.077Z,33.97
2018-04-11T02:37:00.952Z,35.10
2018-04-11T02:37:34.817Z,39.53
2018-04-11T02:38:08.705Z,37.67
2018-04-11T02:38:42.760Z,38.10
2018-04-11T02:39:16.628Z,36.42
2018-04-11T02:39:50.731Z,34.38
2018-04-11T02:40:24.616Z,32.55
2018-04-11T02:40:58.482Z,37.30
2018-04-11T02:41:32.356Z,35.30
2018-04-11T02:42:06.236Z,35.00
2018-04-11T02:42:40.104Z,37.92
2018-04-11T02:43:14.435Z,33.15
2018-04-11T02:43:48.299Z,36.15
2018-04-11T02:44:22.174Z,34.30
2018-04-11T02:44:56.238Z,35.33
2018-04-11T02:46:10.328Z,35.58
2018-04-11T02:46:44.207Z,37.45
2018-04-11T02:47:18.074Z,36.58
2018-04-11T02:47:51.943Z,36.90
2018-04-11T02:48:25.800Z,35.38
2018-04-11T02:48:59.669Z,43.87
2018-04-11T02:49:33.532Z,37.72
2018-04-11T02:50:07.418Z,37.13
2018-04-11T02:50:41.275Z,33.97
2018-04-11T02:51:15.378Z,36.42
2018-04-11T02:51:49.234Z,39.22
2018-04-11T02:52:23.133Z,40.00
2018-04-11T02:52:56.991Z,34.80
2018-04-11T02:53:30.897Z,37.33
2018-04-11T02:54:04.756Z,37.42
2018-04-11T02:54:38.641Z,38.67
2018-04-11T02:55:12.816Z,36.38
2018-04-11T02:55:46.718Z,35.35
2018-04-11T02:56:20.748Z,34.92
2018-04-11T02:56:54.614Z,37.08
2018-04-11T02:57:28.780Z,32.47
2018-04-11T02:58:02.633Z,35.28
2018-04-11T02:58:36.522Z,31.95
2018-04-11T02:59:10.415Z,36.25
2018-04-11T02:59:44.272Z,32.05
2018-04-11T03:00:18.153Z,37.38
2018-04-11T03:00:52.064Z,36.08
2018-04-11T03:01:25.915Z,38.00
2018-04-11T03:02:00.064Z,38.45
2018-04-11T03:02:33.943Z,33.75
2018-04-11T03:03:07.840Z,39.50
2018-04-11T03:03:41.708Z,35.15
2018-04-11T03:04:15.573Z,36.50
2018-04-11T03:04:49.435Z,37.25
2018-04-11T03:05:23.326Z,32.40
2018-04-11T03:05:57.207Z,33.53
2018-04-11T03:06:31.076Z,36.05
2018-04-11T03:07:04.926Z,33.17
2018-04-11T03:07:38.816Z,33.05
2018-04-11T03:08:12.807Z,34.85
2018-04-11T03:08:46.920Z,37.17
2018-04-11T03:09:20.800Z,33.38
2018-04-11T03:09:54.668Z,35.97
2018-04-11T03:10:28.545Z,33.17
2018-04-11T03:11:02.418Z,36.85
2018-04-11T03:11:36.365Z,33.92
2018-04-11T03:12:10.232Z,36.90
2018-04-11T03:12:44.299Z,36.60
2018-04-11T03:13:18.165Z,35.63
2018-04-11T03:13:52.085Z,37.47
2018-04-11T03:14:26.252Z,35.47
2018-04-11T03:15:00.152Z,31.02
2018-04-11T03:15:34.024Z,38.25
2018-04-11T03:16:07.951Z,35.45
2018-04-11T03:16:41.822Z,34.42
2018-04-11T03:17:15.692Z,38.20
2018-04-11T03:17:49.587Z,36.67
2018-04-11T03:18:23.470Z,35.78
2018-04-11T03:18:57.424Z,31.02
2018-04-11T03:19:31.303Z,43.67
2018-04-11T03:20:05.415Z,39.20
2018-04-11T03:20:39.281Z,35.38
2018-04-11T03:21:13.416Z,35.97
2018-04-11T03:21:47.324Z,32.65
2018-04-11T03:22:21.163Z,36.72
2018-04-11T03:22:55.332Z,38.15
2018-04-11T03:23:29.397Z,38.25
2018-04-11T03:24:03.257Z,36.10
2018-04-11T03:24:37.124Z,40.95
2018-04-11T03:25:10.993Z,36.70
2018-04-11T03:25:44.863Z,39.05
2018-04-11T03:26:18.882Z,41.03
2018-04-11T03:26:52.742Z,38.90
2018-04-11T03:27:26.623Z,37.05
2018-04-11T03:28:00.534Z,33.83
2018-04-11T03:28:34.453Z,32.53
2018-04-11T03:29:08.303Z,38.35
2018-04-11T03:29:42.243Z,35.97
2018-04-11T03:30:16.446Z,39.42
2018-04-11T03:30:50.344Z,46.45
2018-04-11T03:31:24.205Z,38.53
2018-04-11T03:31:58.257Z,34.10
2018-04-11T03:32:32.140Z,35.88
2018-04-11T03:33:06.016Z,35.53
2018-04-11T03:33:39.883Z,38.20
2018-04-11T03:34:13.783Z,36.40
2018-04-11T03:34:47.675Z,36.05
2018-04-11T03:35:21.550Z,40.25
2018-04-11T03:35:55.411Z,39.45
2018-04-11T03:36:29.281Z,37.47
2018-04-11T03:37:03.142Z,37.08
2018-04-11T03:37:37.033Z,42.13
2018-04-11T03:38:10.921Z,38.40
2018-04-11T03:38:45.495Z,39.65
2018-04-11T03:39:19.365Z,38.22
2018-04-11T03:39:53.695Z,35.30
2018-04-11T03:40:27.713Z,43.13
2018-04-11T03:41:01.583Z,41.45
2018-04-11T03:41:35.459Z,39.30
2018-04-11T03:42:09.348Z,38.92
2018-04-11T03:42:43.217Z,39.33
2018-04-11T03:43:17.096Z,39.42
2018-04-11T03:43:50.970Z,41.28
2018-04-11T03:44:24.827Z,42.70
2018-04-11T03:44:58.685Z,42.67
2018-04-11T03:45:32.546Z,45.35
2018-04-11T03:46:06.752Z,41.78
2018-04-11T03:46:40.610Z,37.42
2018-04-11T03:47:14.487Z,42.95
2018-04-11T03:47:48.352Z,40.12
2018-04-11T03:48:22.230Z,38.33
2018-04-11T03:48:56.082Z,41.55
2018-04-11T03:49:30.016Z,41.80
2018-04-11T03:50:03.883Z,37.15
2018-04-11T03:50:37.755Z,35.95
2018-04-11T03:51:11.703Z,38.58
2018-04-11T03:51:45.586Z,41.50
2018-04-11T03:52:19.700Z,40.63
2018-04-11T03:52:53.695Z,39.15
2018-04-11T03:53:27.575Z,41.10
2018-04-11T03:54:01.439Z,40.88
2018-04-11T03:54:35.377Z,38.45
2018-04-11T03:55:09.273Z,38.70
2018-04-11T03:55:43.138Z,41.42
2018-04-11T03:56:17.064Z,37.45
2018-04-11T03:56:50.925Z,44.30
2018-04-11T03:57:24.787Z,48.28
2018-04-11T03:57:58.659Z,43.05
2018-04-11T03:58:32.552Z,36.95
2018-04-11T03:59:06.435Z,41.58
2018-04-11T03:59:40.328Z,40.45
2018-04-11T04:00:14.201Z,40.40
2018-04-11T04:00:48.240Z,41.28
2018-04-11T04:01:22.099Z,43.35
2018-04-11T04:01:56.121Z,37.58
2018-04-11T04:02:29.996Z,43.03
2018-04-11T04:03:04.020Z,44.67
2018-04-11T04:03:37.895Z,41.08
2018-04-11T04:04:11.799Z,40.60
2018-04-11T04:04:45.658Z,40.10
2018-04-11T04:05:19.550Z,40.35
2018-04-11T04:05:53.445Z,40.80
2018-04-11T04:06:27.315Z,40.33
2018-04-11T04:07:01.191Z,41.53
2018-04-11T04:07:35.100Z,42.95
2018-04-11T04:08:08.972Z,42.95
2018-04-11T04:08:42.858Z,45.00
2018-04-11T04:09:16.732Z,38.10
2018-04-11T04:09:50.617Z,37.75
2018-04-11T04:10:24.497Z,42.17
2018-04-11T04:10:58.351Z,39.50
2018-04-11T04:11:32.218Z,45.22
2018-04-11T04:12:06.095Z,39.67
2018-04-11T04:12:39.968Z,42.65
2018-04-11T04:13:13.921Z,42.38
2018-04-11T04:13:53.649Z,40.70
2018-04-11T04:14:33.439Z,46.45
2018-04-11T04:15:13.304Z,42.70
2018-04-11T04:15:53.124Z,44.10
2018-04-11T04:16:32.888Z,40.47
2018-04-11T04:17:12.579Z,41.58
2018-04-11T04:17:52.257Z,45.78
2018-04-11T04:18:32.012Z,46.28
2018-04-11T04:19:11.809Z,43.85
2018-04-11T04:19:48.656Z,39.47
2018-04-11T04:20:28.327Z,41.40
2018-04-11T04:21:02.207Z,42.40
2018-04-11T04:21:36.079Z,41.60
2018-04-11T04:22:10.030Z,40.47
2018-04-11T04:22:43.895Z,42.55
2018-04-11T04:23:17.752Z,42.42
2018-04-11T04:23:51.635Z,43.05
2018-04-11T04:24:25.720Z,39.78
2018-04-11T04:24:59.711Z,39.20
2018-04-11T04:25:33.595Z,43.80
2018-04-11T04:26:07.781Z,39.40
2018-04-11T04:26:41.702Z,41.10
2018-04-11T04:27:15.607Z,40.17
2018-04-11T04:27:49.519Z,45.85
2018-04-11T04:28:23.402Z,40.60
2018-04-11T04:28:57.263Z,37.70
2018-04-11T04:29:31.196Z,36.70
2018-04-11T04:30:05.081Z,41.47
2018-04-11T04:30:38.968Z,43.63
2018-04-11T04:31:12.849Z,40.42
2018-04-11T04:31:46.889Z,42.38
2018-04-11T04:32:20.796Z,42.08
2018-04-11T04:32:54.711Z,40.75
2018-04-11T04:33:29.687Z,43.55
2018-04-11T04:34:03.575Z,39.47
2018-04-11T04:34:37.743Z,40.08
2018-04-11T04:35:11.679Z,44.17
2018-04-11T04:35:45.581Z,42.53
2018-04-11T04:36:19.475Z,41.33
2018-04-11T04:36:53.657Z,41.25
2018-04-11T04:37:28.263Z,40.65
2018-04-11T04:38:02.192Z,44.45
2018-04-11T04:38:36.071Z,41.03
2018-04-11T04:39:09.993Z,46.28
2018-04-11T04:39:43.987Z,44.42
2018-04-11T04:40:17.889Z,36.90
2018-04-11T04:40:51.797Z,43.75
2018-04-11T04:41:25.718Z,39.60
2018-04-11T04:41:59.591Z,44.30
2018-04-11T04:42:33.488Z,40.40
2018-04-11T04:43:07.401Z,47.20
2018-04-11T04:43:41.284Z,49.78
2018-04-11T04:44:15.197Z,45.47
2018-04-11T04:44:49.114Z,43.35
2018-04-11T04:45:23.223Z,40.75
2018-04-11T04:45:57.289Z,39.25
2018-04-11T04:46:31.297Z,42.50
2018-04-11T04:47:05.160Z,40.83
2018-04-11T04:47:39.051Z,37.25
2018-04-11T04:48:12.975Z,45.60
2018-04-11T04:48:46.831Z,39.60
2018-04-11T04:49:20.969Z,45.25
2018-04-11T04:49:54.839Z,37.20
2018-04-11T04:50:28.704Z,41.42
2018-04-11T04:51:02.655Z,40.53
2018-04-11T04:51:36.652Z,39.53
2018-04-11T04:52:10.546Z,42.75
2018-04-11T04:52:44.416Z,40.00
2018-04-11T04:53:18.438Z,45.10
2018-04-11T04:53:52.540Z,41.75
2018-04-11T04:54:26.432Z,43.05
2018-04-11T04:55:00.313Z,38.00
2018-04-11T04:55:34.295Z,49.00
2018-04-11T04:56:08.230Z,43.97
2018-04-11T04:56:42.106Z,40.60
2018-04-11T04:57:15.969Z,40.53
2018-04-11T04:57:50.014Z,47.75
2018-04-11T04:58:24.024Z,42.85
2018-04-11T04:58:57.912Z,40.55
2018-04-11T04:59:31.881Z,43.30
2018-04-11T05:00:06.005Z,42.15
2018-04-11T05:00:39.931Z,43.35
2018-04-11T05:01:13.832Z,40.33
2018-04-11T05:01:47.735Z,42.72
2018-04-11T05:02:21.621Z,43.87
2018-04-11T05:02:55.488Z,42.62
2018-04-11T05:03:29.356Z,42.15
2018-04-11T05:04:03.228Z,40.67
2018-04-11T05:04:37.115Z,47.08
2018-04-11T05:05:11.103Z,40.83
2018-04-11T05:05:45.262Z,40.83
2018-04-11T05:06:19.362Z,41.70
2018-04-11T05:06:53.259Z,39.88
2018-04-11T05:07:27.134Z,42.17
2018-04-11T05:08:01.028Z,41.58
2018-04-11T05:08:34.894Z,42.20
2018-04-11T05:09:09.060Z,39.95
2018-04-11T05:09:42.960Z,39.97
2018-04-11T05:10:16.836Z,39.50
2018-04-11T05:10:50.836Z,41.33
2018-04-11T05:11:24.757Z,43.45
2018-04-11T05:11:58.826Z,45.33
2018-04-11T05:12:32.848Z,42.72
2018-04-11T05:13:06.847Z,45.08
2018-04-11T05:13:40.723Z,42.50
2018-04-11T05:14:14.646Z,39.80
2018-04-11T05:14:48.620Z,45.53
2018-04-11T05:15:22.510Z,39.42
2018-04-11T05:15:56.375Z,39.13
2018-04-11T05:16:30.250Z,40.00
2018-04-11T05:17:04.117Z,39.55
2018-04-11T05:17:37.980Z,41.17
2018-04-11T05:18:11.930Z,41.63
2018-04-11T05:18:45.819Z,38.25
2018-04-11T05:19:19.681Z,41.05
2018-04-11T05:19:53.549Z,41.05
2018-04-11T05:20:27.457Z,47.00
2018-04-11T05:21:01.340Z,39.75
2018-04-11T05:21:35.242Z,46.03
2018-04-11T05:22:09.209Z,42.30
2018-04-11T05:32:23.131Z,39.42
2018-04-11T05:32:57.008Z,42.55
2018-04-11T05:33:30.888Z,43.13
2018-04-11T05:34:04.946Z,46.88
2018-04-11T05:34:39.182Z,46.65
2018-04-11T05:35:13.054Z,46.33
2018-04-11T05:35:46.977Z,55.42
2018-04-11T05:36:21.126Z,53.22
2018-04-11T05:36:54.978Z,46.60
2018-04-11T05:37:28.890Z,52.13
2018-04-11T05:38:03.907Z,49.97
2018-04-11T05:38:38.170Z,51.83
2018-04-11T05:39:12.035Z,45.33
2018-04-11T05:39:45.906Z,52.80
2018-04-11T05:40:20.194Z,51.55
2018-04-11T05:40:54.106Z,50.80
2018-04-11T05:41:27.966Z,49.63
2018-04-11T05:42:01.853Z,46.55
2018-04-11T05:42:35.745Z,48.03
2018-04-11T05:43:09.606Z,49.17
2018-04-11T05:43:43.481Z,46.20
2018-04-11T05:44:17.343Z,50.08
2018-04-11T05:44:51.312Z,48.58
2018-04-11T05:45:25.199Z,46.17
2018-04-11T05:45:59.087Z,49.50
2018-04-11T05:46:35.809Z,43.42
2018-04-11T05:47:10.198Z,47.75
2018-04-11T05:47:44.089Z,47.13
2018-04-11T05:48:17.958Z,50.25
2018-04-11T05:48:51.815Z,49.53
2018-04-11T05:49:25.721Z,52.90
2018-04-11T05:49:59.643Z,49.90
2018-04-11T05:50:33.511Z,47.50
2018-04-11T05:51:07.592Z,49.15
2018-04-11T05:51:41.456Z,52.62
2018-04-11T05:52:15.374Z,54.10
2018-04-11T05:52:49.240Z,47.67
2018-04-11T05:53:23.134Z,47.20
2018-04-11T05:53:57.003Z,46.25
2018-04-11T05:54:30.871Z,52.70
2018-04-11T05:55:04.740Z,47.78
2018-04-11T05:55:38.608Z,49.92
2018-04-11T05:56:12.485Z,53.58
2018-04-11T05:56:46.357Z,49.90
2018-04-11T05:57:20.232Z,56.85
2018-04-11T05:57:54.119Z,50.42
2018-04-11T05:58:27.981Z,55.03
2018-04-11T05:59:01.972Z,52.28
2018-04-11T05:59:35.844Z,52.42
2018-04-11T06:00:09.740Z,47.15
2018-04-11T06:00:43.603Z,52.33
2018-04-11T06:01:17.464Z,44.72
2018-04-11T06:01:51.343Z,45.08
2018-04-11T06:02:25.372Z,48.72
2018-04-11T06:02:59.245Z,47.90
2018-04-11T06:03:33.099Z,48.95
2018-04-11T06:04:06.955Z,46.65
2018-04-11T06:04:40.831Z,46.92
2018-04-11T06:05:15.067Z,53.65
2018-04-11T06:05:49.024Z,52.35
2018-04-11T06:06:22.900Z,48.17
2018-04-11T06:06:56.774Z,55.17
2018-04-11T06:07:30.736Z,50.20
2018-04-11T06:08:04.809Z,49.40
2018-04-11T06:08:38.711Z,47.25
2018-04-11T06:09:12.597Z,51.95
2018-04-11T06:09:46.487Z,48.95
2018-04-11T06:10:20.347Z,47.22
2018-04-11T06:10:54.332Z,48.65
2018-04-11T06:11:28.210Z,48.03
2018-04-11T06:12:02.185Z,45.58
2018-04-11T06:12:36.375Z,50.25
2018-04-11T06:13:10.271Z,52.80
2018-04-11T06:13:44.175Z,48.17
2018-04-11T06:14:18.074Z,47.38
2018-04-11T06:14:51.940Z,56.85
2018-04-11T06:15:25.850Z,51.40
2018-04-11T06:15:59.733Z,48.87
2018-04-11T06:16:33.612Z,52.33
2018-04-11T06:17:07.641Z,61.55
2018-04-11T06:18:29.869Z,50.65
2018-04-11T06:19:03.771Z,46.85
2018-04-11T06:19:37.760Z,57.13
2018-04-11T06:20:11.620Z,51.83
2018-04-11T06:20:45.567Z,59.97
2018-04-11T06:21:19.432Z,58.45
2018-04-11T06:21:53.307Z,51.75
2018-04-11T06:22:27.351Z,54.53
2018-04-11T06:23:01.261Z,45.97
2018-04-11T06:23:35.132Z,49.65
2018-04-11T06:24:08.992Z,51.63
2018-04-11T06:24:42.876Z,50.58
2018-04-11T06:25:16.739Z,51.33
2018-04-11T06:25:50.612Z,50.00
2018-04-11T06:26:24.490Z,50.45
2018-04-11T06:26:58.376Z,50.35
2018-04-11T06:27:32.275Z,52.03
2018-04-11T06:28:06.474Z,51.08
2018-04-11T06:28:40.362Z,60.45
2018-04-11T06:29:14.235Z,57.80
2018-04-11T06:29:48.104Z,50.50
2018-04-11T06:30:21.967Z,51.13
2018-04-11T06:30:55.856Z,51.60
2018-04-11T06:31:29.970Z,53.08
2018-04-11T06:32:03.830Z,53.05
2018-04-11T06:32:37.732Z,50.60
2018-04-11T06:33:12.001Z,60.30
2018-04-11T06:33:45.954Z,47.45
2018-04-11T06:34:19.815Z,55.08
2018-04-11T06:34:53.681Z,48.10
2018-04-11T06:35:27.748Z,46.60
2018-04-11T06:36:01.618Z,54.35
2018-04-11T06:36:35.492Z,50.50
2018-04-11T06:37:09.363Z,50.72
2018-04-11T06:37:43.227Z,58.72
2018-04-11T06:38:17.087Z,56.55
2018-04-11T06:38:51.126Z,54.13
2018-04-11T06:39:25.220Z,50.08
2018-04-11T06:39:59.066Z,58.28
2018-04-11T06:40:32.943Z,55.95
2018-04-11T06:41:06.816Z,47.55
2018-04-11T06:41:40.749Z,47.33
2018-04-11T06:42:14.632Z,52.67
2018-04-11T06:42:48.503Z,53.35
2018-04-11T06:43:22.381Z,53.65
2018-04-11T06:43:56.288Z,48.15
2018-04-11T06:44:30.175Z,56.75
2018-04-11T06:45:04.046Z,55.65
2018-04-11T06:45:37.943Z,52.62
2018-04-11T06:46:11.855Z,59.60
2018-04-11T06:46:45.757Z,52.62
2018-04-11T06:47:19.860Z,51.78
2018-04-11T06:47:53.726Z,44.72
2018-04-11T06:48:27.604Z,48.80
2018-04-11T06:49:01.487Z,51.17
2018-04-11T06:49:35.368Z,48.50
2018-04-11T06:50:09.334Z,45.35
2018-04-11T06:50:43.213Z,51.70
2018-04-11T06:51:17.211Z,45.40
2018-04-11T06:51:51.116Z,53.80
2018-04-11T06:52:24.985Z,48.33
2018-04-11T06:52:58.882Z,49.80
2018-04-11T06:53:32.745Z,51.70
2018-04-11T06:54:06.621Z,49.90
2018-04-11T06:54:40.512Z,50.33
2018-04-11T06:55:14.407Z,48.60
2018-04-11T06:55:48.297Z,51.15
2018-04-11T06:56:22.150Z,55.10
2018-04-11T06:56:56.043Z,44.75
2018-04-11T06:57:29.951Z,45.60
2018-04-11T06:58:03.828Z,43.90
2018-04-11T06:58:37.704Z,45.75
2018-04-11T06:59:11.609Z,47.00
2018-04-11T06:59:45.481Z,53.63
2018-04-11T07:00:19.356Z,54.55
2018-04-11T07:00:53.245Z,47.22
2018-04-11T07:01:27.137Z,46.25
2018-04-11T07:02:01.059Z,43.92
2018-04-11T07:02:34.932Z,43.87
2018-04-11T07:03:08.821Z,53.80
2018-04-11T07:03:42.717Z,43.70
2018-04-11T07:04:16.629Z,48.85
2018-04-11T07:04:50.516Z,47.35
2018-04-11T07:05:24.597Z,46.10
2018-04-11T07:05:58.710Z,51.90
2018-04-11T07:06:32.722Z,46.13
2018-04-11T07:07:06.595Z,45.25
2018-04-11T07:07:40.599Z,51.20
2018-04-11T07:08:14.482Z,46.70
2018-04-11T07:08:48.502Z,45.78
2018-04-11T07:09:22.394Z,45.92
2018-04-11T07:09:56.281Z,43.53
2018-04-11T07:10:30.161Z,49.42
2018-04-11T07:11:04.084Z,53.47
2018-04-11T07:11:37.951Z,47.92
2018-04-11T07:12:11.831Z,44.38
2018-04-11T07:12:45.781Z,44.75
2018-04-11T07:13:19.659Z,48.10
2018-04-11T07:13:53.654Z,46.67
2018-04-11T07:14:27.548Z,46.17
2018-04-11T07:15:01.540Z,55.12
2018-04-11T07:15:35.440Z,45.47
2018-04-11T07:16:09.336Z,41.00
2018-04-11T07:16:43.227Z,59.53
2018-04-11T07:17:17.331Z,46.30
2018-04-11T07:17:51.205Z,44.97
2018-04-11T07:18:25.073Z,46.13
2018-04-11T07:18:58.940Z,49.92
2018-04-11T07:19:32.827Z,43.87
2018-04-11T07:20:06.722Z,45.33
2018-04-11T07:20:40.590Z,45.63
2018-04-11T07:21:14.492Z,43.08
2018-04-11T07:21:48.366Z,42.72
2018-04-11T07:22:22.244Z,42.90
2018-04-11T07:22:56.133Z,38.05
2018-04-11T07:23:30.057Z,37.63
2018-04-11T07:24:04.007Z,43.17
2018-04-11T07:24:39.779Z,44.42
2018-04-11T07:25:13.857Z,40.15
2018-04-11T07:25:47.753Z,44.13
2018-04-11T07:26:22.049Z,38.42
2018-04-11T07:26:57.486Z,40.17
2018-04-11T07:27:31.353Z,41.08
2018-04-11T07:28:05.341Z,41.28
2018-04-11T07:28:39.219Z,38.53
2018-04-11T07:29:13.104Z,40.97